Buoy 46930

sailwx.info

Track history (hours):
 
Tides and Currents Weather Stations Pressure Air Temp Water Temp Dewpoint Dewpoint Depression Visibility Wind Speed Wind Dir Waves Ship Positions

Drifting buoy 46930

Last reported at 2015-May-25 04:00 UTC. Time now 2015-May-25 09:33 UTC.
Position N 13°31' W 125°29'.

Date/timePositionNaut miles runAvg speedWind from/ knotsBaromVisibWave heightAir tempDewpointWater temp
2015-May-25 04:00N 13°31' W 125°29'0 0.2
2015-May-25 03:00N 13°32' W 125°29'3 0.4
2015-May-24 19:00N 13°31' W 125°25'2 0.2
2015-May-24 11:00N 13°33' W 125°25'0 0.3
2015-May-24 10:00N 13°33' W 125°24'1 0.3
2015-May-24 06:00N 13°32' W 125°25'1 0.3
2015-May-24 04:00N 13°32' W 125°25'6 0.4
2015-May-23 12:00N 13°27' W 125°22'2 0.3
2015-May-23 05:00N 13°26' W 125°20'5 0.3
2015-May-22 16:00N 13°24' W 125°15'4 0.4
2015-May-22 05:00N 13°23' W 125°11'0 0.3
2015-May-22 04:00N 13°23' W 125°11'8 0.3
2015-May-21 02:00N 13°27' W 125°04'1 0.3
2015-May-20 23:00N 13°27' W 125°03'1 0.4
2015-May-20 21:00N 13°26' W 125°03'2 0.3
2015-May-20 16:00N 13°24' W 125°02'0 0.2
2015-May-20 15:00N 13°25' W 125°02'0 0.2
2015-May-20 13:00N 13°25' W 125°01'1 0.6
2015-May-20 12:00N 13°25' W 125°01'5 0.4
2015-May-20 00:00N 13°23' W 124°56'0 0.5
2015-May-19 23:00N 13°23' W 124°55'4 0.3
2015-May-19 06:00N 13°24' W 124°51'2 0.8
2015-May-19 04:00N 13°23' W 124°50'0 0.0
2015-May-19 03:00N 13°23' W 124°50'1 0.4
2015-May-19 01:00N 13°24' W 124°49'0 0.2
2015-May-19 00:00N 13°24' W 124°49'1 0.7
2015-May-18 23:00N 13°23' W 124°48'2 0.5
2015-May-18 19:00N 13°23' W 124°46'0 0.3
2015-May-18 18:00N 13°23' W 124°46'0 0.1
2015-May-18 17:00N 13°23' W 124°46'1 0.7
2015-May-18 16:00N 13°23' W 124°45'1 0.2
2015-May-18 13:00N 13°23' W 124°45'3 0.3
2015-May-18 04:00N 13°25' W 124°42'1 0.6
2015-May-18 02:00N 13°24' W 124°41'0 0.0
2015-May-18 01:00N 13°24' W 124°41'1 0.8
2015-May-18 00:00N 13°25' W 124°40'0 0.0
2015-May-17 23:00N 13°25' W 124°40'1 0.5
2015-May-17 22:00N 13°25' W 124°40'1 1.1
2015-May-17 21:00N 13°25' W 124°39'1 0.2
2015-May-17 17:00N 13°26' W 124°38'0 0.0
2015-May-17 16:00N 13°26' W 124°38'0 0.1
2015-May-17 14:00N 13°26' W 124°38'0 0.4
2015-May-17 13:00N 13°26' W 124°38'1 0.2
2015-May-17 10:00N 13°26' W 124°37'1 0.3
2015-May-17 08:00N 13°26' W 124°37'1 0.2
2015-May-17 03:00N 13°27' W 124°36'1 0.4
2015-May-17 01:00N 13°27' W 124°36'4 0.3
2015-May-16 11:00N 13°27' W 124°32'3 0.3
2015-May-16 01:00N 13°27' W 124°29'2 0.2
2015-May-15 11:00N 13°27' W 124°27'1 0.8
2015-May-15 10:00N 13°27' W 124°26'1 0.2
2015-May-15 06:00N 13°26' W 124°26'1 1.4
2015-May-15 05:00N 13°25' W 124°25'0 0.0
2015-May-15 04:00N 13°25' W 124°25'  
Track history (hours):
 
Tides and Currents Weather Stations Pressure Air Temp Water Temp Dewpoint Dewpoint Depression Visibility Wind Speed Wind Dir Waves Ship Positions

Drifting buoy 46930

Last reported at 2015-May-25 04:00 UTC. Time now 2015-May-25 09:33 UTC.
Position N 13°31' W 125°29'.

Date/timePositionNaut miles runAvg speedWind from/ knotsBaromVisibWave heightAir tempDewpointWater temp
2015-May-25 04:00N 13°31' W 125°29'0 0.2
2015-May-25 03:00N 13°32' W 125°29'3 0.4
2015-May-24 19:00N 13°31' W 125°25'2 0.2
2015-May-24 11:00N 13°33' W 125°25'0 0.3
2015-May-24 10:00N 13°33' W 125°24'1 0.3
2015-May-24 06:00N 13°32' W 125°25'1 0.3
2015-May-24 04:00N 13°32' W 125°25'6 0.4
2015-May-23 12:00N 13°27' W 125°22'2 0.3
2015-May-23 05:00N 13°26' W 125°20'5 0.3
2015-May-22 16:00N 13°24' W 125°15'4 0.4
2015-May-22 05:00N 13°23' W 125°11'0 0.3
2015-May-22 04:00N 13°23' W 125°11'8 0.3
2015-May-21 02:00N 13°27' W 125°04'1 0.3
2015-May-20 23:00N 13°27' W 125°03'1 0.4
2015-May-20 21:00N 13°26' W 125°03'2 0.3
2015-May-20 16:00N 13°24' W 125°02'0 0.2
2015-May-20 15:00N 13°25' W 125°02'0 0.2
2015-May-20 13:00N 13°25' W 125°01'1 0.6
2015-May-20 12:00N 13°25' W 125°01'5 0.4
2015-May-20 00:00N 13°23' W 124°56'0 0.5
2015-May-19 23:00N 13°23' W 124°55'4 0.3
2015-May-19 06:00N 13°24' W 124°51'2 0.8
2015-May-19 04:00N 13°23' W 124°50'0 0.0
2015-May-19 03:00N 13°23' W 124°50'1 0.4
2015-May-19 01:00N 13°24' W 124°49'0 0.2
2015-May-19 00:00N 13°24' W 124°49'1 0.7
2015-May-18 23:00N 13°23' W 124°48'2 0.5
2015-May-18 19:00N 13°23' W 124°46'0 0.3
2015-May-18 18:00N 13°23' W 124°46'0 0.1
2015-May-18 17:00N 13°23' W 124°46'1 0.7
2015-May-18 16:00N 13°23' W 124°45'1 0.2
2015-May-18 13:00N 13°23' W 124°45'3 0.3
2015-May-18 04:00N 13°25' W 124°42'1 0.6
2015-May-18 02:00N 13°24' W 124°41'0 0.0
2015-May-18 01:00N 13°24' W 124°41'1 0.8
2015-May-18 00:00N 13°25' W 124°40'0 0.0
2015-May-17 23:00N 13°25' W 124°40'1 0.5
2015-May-17 22:00N 13°25' W 124°40'1 1.1
2015-May-17 21:00N 13°25' W 124°39'1 0.2
2015-May-17 17:00N 13°26' W 124°38'0 0.0
2015-May-17 16:00N 13°26' W 124°38'0 0.1
2015-May-17 14:00N 13°26' W 124°38'0 0.4
2015-May-17 13:00N 13°26' W 124°38'1 0.2
2015-May-17 10:00N 13°26' W 124°37'1 0.3
2015-May-17 08:00N 13°26' W 124°37'1 0.2
2015-May-17 03:00N 13°27' W 124°36'1 0.4
2015-May-17 01:00N 13°27' W 124°36'4 0.3
2015-May-16 11:00N 13°27' W 124°32'3 0.3
2015-May-16 01:00N 13°27' W 124°29'2 0.2
2015-May-15 11:00N 13°27' W 124°27'1 0.8
2015-May-15 10:00N 13°27' W 124°26'1 0.2
2015-May-15 06:00N 13°26' W 124°26'1 1.4
2015-May-15 05:00N 13°25' W 124°25'0 0.0
2015-May-15 04:00N 13°25' W 124°25'  

Dump ship's entire track history